Flugplatz Leer-Papenburg

Für EDWF sind keine METAR/TAF Berichte vorhanden.
Es werden die Flugwettermeldungen vom Flugplatz Wittmundhafen Airport in 34 km Entfernung angezeigt.

Bericht für ETNT

vom 25.05. um 01:20 UTC

Wind 10 kt aus 300°

Sichtweite 10 km oder mehr

aufgelockert bewölkt in 1900 ft

aufgebrochene Bewölkung in 5000 ft

Temperatur 12.0°C

Taupunkt 9.0°C

Luftfeuchtigkeit 82%

Luftdruck 1028 hPa

ETNT 250120Z 30010KT 9999 SCT019 BKN050 12/09 Q1028 BLU

Prognose für ETNT

vom 24.05. um 22:00 UTC

Am 24.05. zwischen 23:00 UTC und 08:00 UTC

Wind 15 kt aus 300°

Sichtweite 10 km oder mehr

keine signifikanten Wettererscheinungen

aufgelockert bewölkt in 1000 ft

aufgebrochene Bewölkung in 3000 ft


Am 24.05. zwischen 23:00 UTC und 08:00 UTC zeitweise

Wind 15 kt aus 320° in Böen 25 kt

Sichtweite 8000 m

keine signifikanten Wettererscheinungen

aufgebrochene Bewölkung in 700 ft

TAF ETNT 242200Z 2423/2508 30015KT 9999 NSW SCT010 BKN030 TEMPO 2423/2508 32015G25KT 8000 NSW BKN007 BY ETGL
Impressum